Time;durP1;ratioP1;P1;durP2;ratioP2;P2;SDS_P1;SDS_P2;PMS_P1;PMS_P2;Temp;Humidity;BMP_temperature;BMP_pressure;BME280_temperature;BME280_humidity;BME280_pressure;Samples;Min_cycle;Max_cycle;Signal;HPM_P1;HPM_P2
2024/04/15 05:10:06;;;;;;;8.70;1.60;;;;;;;10.52;80.76;99926.46;104940;1311;555556;-82
2024/04/15 05:12:54;;;;;;;6.40;1.50;;;;;;;10.38;81.21;99940.73;108429;1275;25361;-80
2024/04/15 05:15:42;;;;;;;6.10;1.40;;;;;;;10.27;80.65;99946.65;108234;1275;22544;-81
2024/04/15 05:18:33;;;;;;;5.60;1.30;;;;;;;10.16;80.59;99940.23;107909;1272;22665;-82
2024/04/15 05:21:26;;;;;;;5.00;1.00;;;;;;;10.04;80.83;99939.77;110619;1269;22406;-83
2024/04/15 05:24:15;;;;;;;6.00;1.20;;;;;;;9.95;80.94;99945.44;110531;1273;152245;-82
2024/04/15 05:27:03;;;;;;;5.10;1.10;;;;;;;9.85;80.70;99946.19;110714;1269;22384;-82
2024/04/15 05:29:52;;;;;;;6.70;1.30;;;;;;;9.79;80.11;99937.48;110794;1266;22173;-82
2024/04/15 05:32:39;;;;;;;11.10;1.10;;;;;;;9.76;80.04;99930.94;110915;1269;22350;-82
2024/04/15 05:35:27;;;;;;;12.90;1.20;;;;;;;9.75;80.05;99923.15;110898;1266;22385;-82
2024/04/15 05:38:16;;;;;;;4.90;0.80;;;;;;;9.77;79.86;99924.25;110753;1272;22430;-82
2024/04/15 05:41:04;;;;;;;6.40;1.00;;;;;;;9.78;79.56;99927.78;110851;1269;23008;-81
2024/04/15 05:43:51;;;;;;;5.20;0.80;;;;;;;9.77;79.01;99924.31;110834;1262;23204;-81
2024/04/15 05:46:49;;;;;;;4.70;0.70;;;;;;;9.74;77.73;99923.91;110675;1269;22363;-82
2024/04/15 05:49:39;;;;;;;4.10;1.00;;;;;;;9.71;77.54;99911.13;110863;1269;23063;-81
2024/04/15 05:52:26;;;;;;;;;;;;;;;9.68;77.22;99896.02;110882;1265;22427;-81
2024/04/15 05:55:14;;;;;;;7.60;0.70;;;;;;;9.67;77.37;99894.08;110655;1267;22313;-82
2024/04/15 05:58:02;;;;;;;5.60;0.70;;;;;;;9.67;76.78;99883.48;110894;1271;22955;-82
2024/04/15 06:00:50;;;;;;;3.50;0.60;;;;;;;9.67;77.30;99881.56;110733;1272;22355;-83
2024/04/15 06:03:37;;;;;;;6.60;0.90;;;;;;;9.66;77.34;99892.14;110930;1272;22230;-80
2024/04/15 06:06:27;;;;;;;4.60;0.80;;;;;;;9.63;77.41;99900.76;111033;1269;22237;-80
2024/04/15 06:09:15;;;;;;;6.20;0.80;;;;;;;9.61;77.52;99900.84;111028;1271;22195;-80
2024/04/15 06:12:02;;;;;;;4.10;0.80;;;;;;;9.59;77.58;99891.41;111043;1271;22224;-80
2024/04/15 06:14:50;;;;;;;7.30;0.90;;;;;;;9.57;77.14;99891.90;111044;1269;23151;-80
2024/04/15 06:17:37;;;;;;;6.10;0.80;;;;;;;9.54;77.19;99905.34;111056;1271;22213;-80
2024/04/15 06:20:25;;;;;;;5.30;0.90;;;;;;;9.52;76.75;99888.91;110967;1268;22234;-81
2024/04/15 06:23:13;;;;;;;5.30;0.80;;;;;;;9.53;76.98;99882.75;110941;1267;23047;-80
2024/04/15 06:26:01;;;;;;;3.90;0.70;;;;;;;9.56;76.51;99888.88;111064;1269;22213;-80
2024/04/15 06:28:48;;;;;;;7.00;1.00;;;;;;;9.52;76.10;99908.02;111043;1269;22214;-80
2024/04/15 06:31:36;;;;;;;5.90;1.00;;;;;;;9.49;76.04;99913.62;111139;1265;22507;-78
2024/04/15 06:34:24;;;;;;;5.10;0.90;;;;;;;9.43;76.19;99894.08;111169;1269;22228;-79
2024/04/15 06:37:11;;;;;;;4.50;0.70;;;;;;;9.45;76.07;99858.89;111234;1269;22365;-78
2024/04/15 06:39:59;;;;;;;3.70;0.60;;;;;;;9.40;75.66;99892.04;111244;1259;22261;-80
2024/04/15 06:42:47;;;;;;;4.50;0.90;;;;;;;9.39;75.82;99848.92;111153;1269;22918;-80
2024/04/15 06:45:35;;;;;;;5.30;0.90;;;;;;;9.38;75.23;99893.67;111134;1270;22499;-79
2024/04/15 06:48:22;;;;;;;10.80;0.90;;;;;;;9.37;75.32;99860.78;111226;1266;22207;-80
2024/04/15 06:51:10;;;;;;;5.30;0.70;;;;;;;9.35;75.17;99905.20;111180;1269;22349;-80
2024/04/15 06:53:58;;;;;;;6.50;0.70;;;;;;;9.34;75.19;99866.65;111236;1266;22324;-80
2024/04/15 06:56:45;;;;;;;3.50;0.80;;;;;;;9.29;74.72;99908.30;111148;1269;22319;-79
2024/04/15 06:59:32;;;;;;;8.60;0.80;;;;;;;9.27;74.78;99867.03;111212;1266;22538;-80
2024/04/15 07:02:23;;;;;;;5.50;0.70;;;;;;;9.19;74.51;99899.79;111222;1269;22155;-80
2024/04/15 07:05:10;;;;;;;6.40;0.80;;;;;;;9.12;74.88;99889.33;111176;1260;22461;-80
2024/04/15 07:07:57;;;;;;;6.70;0.70;;;;;;;9.05;74.61;99882.38;111181;1269;22233;-79
2024/04/15 07:10:44;;;;;;;4.70;0.70;;;;;;;9.03;75.20;99875.70;111216;1269;22230;-80
2024/04/15 07:13:32;;;;;;;6.70;1.00;;;;;;;9.01;75.08;99900.41;111228;1269;22445;-79
2024/04/15 07:16:20;;;;;;;7.50;1.00;;;;;;;8.99;75.45;99904.97;111184;1263;22387;-79
2024/04/15 07:19:07;;;;;;;5.80;0.90;;;;;;;8.95;75.42;99904.36;111229;1261;22184;-80
2024/04/15 07:21:55;;;;;;;4.70;0.70;;;;;;;8.89;75.44;99895.52;111219;1269;22248;-79
2024/04/15 07:24:44;;;;;;;6.60;1.10;;;;;;;8.86;75.70;99892.27;111088;1269;22192;-79
2024/04/15 07:27:32;;;;;;;5.80;0.90;;;;;;;8.82;75.73;99886.98;111205;1266;22467;-80
2024/04/15 07:30:20;;;;;;;9.50;0.80;;;;;;;8.85;76.01;99874.40;111225;1263;22986;-79
2024/04/15 07:33:13;;;;;;;3.00;0.70;;;;;;;8.87;75.89;99882.48;111018;1269;22287;-80
2024/04/15 07:36:01;;;;;;;3.70;0.60;;;;;;;8.86;75.95;99871.23;111218;1269;22439;-80
2024/04/15 07:38:49;;;;;;;9.50;0.70;;;;;;;8.86;75.82;99876.44;111249;1269;22150;-80
2024/04/15 07:41:38;;;;;;;7.30;0.80;;;;;;;8.85;75.86;99868.34;111196;1269;22418;-80
2024/04/15 07:44:25;;;;;;;11.00;0.70;;;;;;;8.85;76.16;99879.52;111162;1259;22354;-79
2024/04/15 07:47:13;;;;;;;9.00;0.80;;;;;;;8.84;76.28;99886.13;111243;1266;22212;-79
2024/04/15 07:50:00;;;;;;;5.20;0.70;;;;;;;8.81;76.31;99880.94;111245;1266;22222;-80
2024/04/15 07:52:48;;;;;;;4.80;0.50;;;;;;;8.80;76.25;99874.95;111247;1269;22280;-80
2024/04/15 07:55:35;;;;;;;5.00;0.50;;;;;;;8.77;76.14;99865.52;111200;1263;22314;-79
2024/04/15 07:58:23;;;;;;;4.80;0.70;;;;;;;8.77;76.08;99864.09;111215;1266;22291;-80
2024/04/15 08:01:11;;;;;;;7.20;1.00;;;;;;;8.77;75.95;99869.23;111263;1266;22277;-79
2024/04/15 08:03:59;;;;;;;7.10;0.70;;;;;;;8.80;76.16;99864.98;111229;1266;22930;-80
2024/04/15 08:06:46;;;;;;;9.30;0.90;;;;;;;8.83;76.16;99852.90;111219;1254;22603;-81
2024/04/15 08:09:33;;;;;;;3.20;0.50;;;;;;;8.89;76.35;99847.23;111189;1269;22466;-79
2024/04/15 08:12:21;;;;;;;5.30;0.80;;;;;;;8.94;76.32;99859.13;111183;1259;22364;-80
2024/04/15 08:15:08;;;;;;;16.10;1.00;;;;;;;8.98;76.36;99873.48;111197;1269;22473;-81
2024/04/15 08:17:56;;;;;;;2.80;0.60;;;;;;;9.03;76.47;99869.20;111150;1266;22236;-80
2024/04/15 08:20:43;;;;;;;3.50;0.50;;;;;;;9.03;75.94;99867.64;110990;1271;22177;-81
2024/04/15 08:23:31;;;;;;;6.00;0.60;;;;;;;9.00;76.06;99859.99;111220;1269;22398;-81
2024/04/15 08:26:18;;;;;;;7.20;0.70;;;;;;;9.01;75.93;99858.02;111167;1269;22228;-81
2024/04/15 08:29:08;;;;;;;5.80;0.60;;;;;;;8.99;75.84;99860.64;111146;1269;22165;-81
2024/04/15 08:31:55;;;;;;;3.90;0.60;;;;;;;8.96;76.06;99863.87;111241;1269;21712;-81
2024/04/15 08:34:43;;;;;;;3.90;0.70;;;;;;;9.01;76.01;99862.70;111208;1263;22292;-81
2024/04/15 08:37:31;;;;;;;5.60;0.50;;;;;;;9.05;75.94;99861.45;111227;1266;23352;-81
2024/04/15 08:40:19;;;;;;;3.10;0.60;;;;;;;9.08;76.15;99860.04;111106;1269;22548;-82
2024/04/15 08:43:07;;;;;;;8.30;0.70;;;;;;;9.10;75.98;99865.61;111232;1269;23134;-81
2024/04/15 08:45:58;;;;;;;7.40;0.50;;;;;;;9.10;76.09;99864.84;111143;1269;23032;-81
2024/04/15 08:48:45;;;;;;;6.50;0.70;;;;;;;9.15;76.08;99858.05;110919;1269;22306;-82
2024/04/15 08:51:33;;;;;;;4.50;0.60;;;;;;;9.18;76.13;99847.89;111203;1266;22337;-81
2024/04/15 08:54:21;;;;;;;7.30;0.70;;;;;;;9.20;75.79;99846.46;111152;1269;22606;-81
2024/04/15 08:57:10;;;;;;;2.00;0.30;;;;;;;9.24;75.90;99849.77;111120;1269;22869;-81
2024/04/15 08:59:59;;;;;;;3.70;0.60;;;;;;;9.28;76.47;99846.20;110976;1270;22330;-81
2024/04/15 09:02:47;;;;;;;6.80;0.70;;;;;;;9.31;76.30;99841.52;111156;1270;23336;-81
2024/04/15 09:05:35;;;;;;;8.70;0.90;;;;;;;9.31;75.87;99843.89;111154;1270;22403;-81
2024/04/15 09:08:23;;;;;;;7.60;0.90;;;;;;;9.31;75.74;99848.97;111181;1269;22159;-81
2024/04/15 09:11:10;;;;;;;3.40;0.70;;;;;;;9.34;75.88;99852.78;111114;1269;22772;-80
2024/04/15 09:13:57;;;;;;;3.60;0.60;;;;;;;9.34;75.58;99858.80;111179;1269;22316;-80
2024/04/15 09:16:47;;;;;;;4.20;0.40;;;;;;;9.35;75.91;99857.86;111141;1266;23084;-80
2024/04/15 09:19:34;;;;;;;4.00;0.50;;;;;;;9.35;75.70;99852.96;111193;1264;22545;-81
2024/04/15 09:22:27;;;;;;;4.30;0.50;;;;;;;9.38;75.73;99849.19;111189;1266;22298;-80
2024/04/15 09:25:15;;;;;;;3.80;0.50;;;;;;;9.42;75.54;99854.98;111078;1269;22314;-81
2024/04/15 09:28:04;;;;;;;3.50;0.50;;;;;;;9.47;75.54;99841.96;111095;1266;22458;-82
2024/04/15 09:30:52;;;;;;;4.40;0.60;;;;;;;9.49;75.48;99831.96;111196;1266;22360;-80
2024/04/15 09:33:40;;;;;;;2.60;0.40;;;;;;;9.55;75.58;99832.77;111162;1259;22380;-80
2024/04/15 09:36:29;;;;;;;3.50;0.40;;;;;;;9.60;75.26;99832.41;111151;1263;22377;-81
2024/04/15 09:39:23;;;;;;;2.20;0.40;;;;;;;9.63;74.89;99836.45;111175;1263;22507;-81
2024/04/15 09:42:14;;;;;;;2.80;0.40;;;;;;;9.65;74.89;99833.55;111212;1269;22288;-80
2024/04/15 09:45:05;;;;;;;8.80;0.60;;;;;;;9.64;74.54;99826.08;111140;1270;22210;-82
2024/04/15 09:47:54;;;;;;;6.90;0.60;;;;;;;9.64;74.63;99815.88;111128;1270;22225;-82
2024/04/15 09:50:47;;;;;;;6.80;0.60;;;;;;;9.70;74.88;99801.45;110992;1262;23046;-81
2024/04/15 09:53:38;;;;;;;4.00;0.50;;;;;;;9.73;74.77;99800.43;111002;1270;22508;-81
2024/04/15 09:56:27;;;;;;;3.80;0.40;;;;;;;9.78;74.95;99795.80;111186;1266;22283;-81
2024/04/15 09:59:16;;;;;;;2.90;0.50;;;;;;;9.87;75.54;99790.04;111176;1266;22409;-81
2024/04/15 10:02:10;;;;;;;4.30;0.40;;;;;;;9.94;75.32;99783.28;111377;1268;22170;-81
2024/04/15 10:05:08;;;;;;;3.00;0.50;;;;;;;10.01;75.14;99789.41;111401;1268;22265;-81
2024/04/15 10:07:57;;;;;;;3.80;0.50;;;;;;;10.06;75.15;99784.17;111213;1269;22216;-82
2024/04/15 10:10:46;;;;;;;4.20;0.50;;;;;;;10.10;74.91;99794.38;111386;1268;22205;-82
2024/04/15 10:13:35;;;;;;;4.20;0.50;;;;;;;10.13;74.50;99791.29;111076;1269;23283;-82
2024/04/15 10:16:22;;;;;;;5.50;0.70;;;;;;;10.18;74.78;99794.16;111271;1266;22192;-81
2024/04/15 10:19:22;;;;;;;2.50;0.70;;;;;;;10.29;74.96;99795.41;111404;1266;22205;-81
2024/04/15 10:22:13;;;;;;;7.60;0.70;;;;;;;10.36;74.85;99786.32;111317;1266;22968;-81
2024/04/15 10:25:01;;;;;;;6.60;0.60;;;;;;;10.44;75.17;99772.98;111320;1268;23119;-82
2024/04/15 10:27:48;;;;;;;2.80;0.40;;;;;;;10.53;74.44;99766.89;111403;1266;22238;-82
2024/04/15 10:30:37;;;;;;;3.40;0.50;;;;;;;10.57;74.47;99752.92;111422;1269;22683;-81
2024/04/15 10:33:24;;;;;;;3.30;0.50;;;;;;;10.61;74.28;99752.61;111427;1263;22258;-82
2024/04/15 10:36:13;;;;;;;7.10;0.70;;;;;;;10.68;74.58;99754.52;111382;1266;22566;-82
2024/04/15 10:39:05;;;;;;;2.80;0.50;;;;;;;10.75;74.27;99744.44;111388;1266;22369;-83
2024/04/15 10:41:52;;;;;;;3.80;0.70;;;;;;;10.78;73.59;99733.30;111224;1269;22158;-82
2024/04/15 10:44:40;;;;;;;3.40;0.70;;;;;;;10.82;74.22;99713.90;111180;1269;22328;-82
2024/04/15 10:47:28;;;;;;;6.20;0.80;;;;;;;10.92;74.12;99713.68;111225;1267;22200;-82
2024/04/15 10:50:17;;;;;;;8.20;0.80;;;;;;;10.98;74.04;99704.24;111367;1266;22206;-82
2024/04/15 10:53:05;;;;;;;9.70;0.90;;;;;;;11.07;73.79;99702.91;111395;1263;22208;-82
2024/04/15 10:55:52;;;;;;;5.00;1.50;;;;;;;11.18;73.86;99703.70;111243;1266;22220;-82
2024/04/15 10:58:40;;;;;;;6.70;0.90;;;;;;;11.26;73.35;99703.41;111331;1266;22979;-81
2024/04/15 11:01:29;;;;;;;5.50;0.90;;;;;;;11.29;73.48;99695.77;111399;1269;22207;-82
2024/04/15 11:04:16;;;;;;;5.80;0.70;;;;;;;11.34;73.64;99689.29;111402;1266;22980;-83
2024/04/15 11:07:05;;;;;;;4.40;0.70;;;;;;;11.46;73.32;99680.13;111333;1266;23211;-81
2024/04/15 11:09:52;;;;;;;5.50;0.70;;;;;;;11.57;72.79;99678.57;111229;1269;22219;-83
2024/04/15 11:12:41;;;;;;;6.40;0.80;;;;;;;11.65;72.44;99677.70;111406;1266;22595;-83
2024/04/15 11:15:30;;;;;;;8.00;0.70;;;;;;;11.72;72.37;99677.36;111178;1266;22223;-83
2024/04/15 11:18:20;;;;;;;8.20;1.10;;;;;;;11.78;72.17;99678.19;111194;1268;22420;-82
2024/04/15 11:21:08;;;;;;;6.50;0.90;;;;;;;11.76;71.90;99673.73;111436;1257;22336;-83
2024/04/15 11:23:57;;;;;;;7.80;0.80;;;;;;;11.75;72.09;99669.39;111213;1269;22942;-83
2024/04/15 11:26:48;;;;;;;6.30;0.80;;;;;;;11.78;71.91;99675.51;111196;1269;22338;-83
2024/04/15 11:29:37;;;;;;;6.60;0.80;;;;;;;11.78;71.15;99680.59;111176;1259;22225;-82
2024/04/15 11:32:27;;;;;;;8.60;0.80;;;;;;;11.74;70.99;99680.20;111393;1266;22210;-82
2024/04/15 11:35:15;;;;;;;3.80;0.80;;;;;;;11.72;71.15;99667.29;111416;1266;22264;-82
2024/04/15 11:38:03;;;;;;;5.90;0.70;;;;;;;11.73;70.75;99658.85;111415;1269;22277;-83
2024/04/15 11:40:51;;;;;;;5.50;0.70;;;;;;;11.71;70.69;99651.92;111277;1269;22125;-83
2024/04/15 11:43:40;;;;;;;4.30;0.80;;;;;;;11.67;70.57;99634.77;111339;1269;22446;-82
2024/04/15 11:46:28;;;;;;;6.10;0.70;;;;;;;11.64;70.61;99626.59;111169;1263;22358;-83
2024/04/15 11:49:18;;;;;;;8.90;0.90;;;;;;;11.61;70.42;99637.16;111402;1263;22116;-82
2024/04/15 11:52:06;;;;;;;4.70;1.10;;;;;;;11.61;70.69;99635.80;111407;1260;22196;-81
2024/04/15 11:54:56;;;;;;;9.50;1.70;;;;;;;11.65;70.81;99623.05;111386;1266;22303;-82
2024/04/15 11:57:45;;;;;;;6.70;0.90;;;;;;;11.67;70.46;99613.58;111138;1261;22185;-82
2024/04/15 12:00:32;;;;;;;8.90;0.90;;;;;;;11.66;70.43;99613.52;111198;1266;22355;-82
2024/04/15 12:03:21;;;;;;;9.30;1.30;;;;;;;11.67;70.30;99595.39;111218;1264;22168;-82
2024/04/15 12:06:10;;;;;;;7.00;0.90;;;;;;;11.70;70.34;99599.86;111363;1268;23248;-83
2024/04/15 12:08:59;;;;;;;4.70;0.90;;;;;;;11.74;70.35;99595.15;111383;1268;22220;-83
2024/04/15 12:11:46;;;;;;;5.40;1.20;;;;;;;11.78;70.23;99578.90;111251;1265;23046;-84
2024/04/15 12:14:34;;;;;;;7.00;1.20;;;;;;;11.81;70.39;99585.41;111214;1269;22928;-81
2024/04/15 12:17:21;;;;;;;4.50;0.90;;;;;;;11.86;70.20;99577.36;111402;1265;22331;-82
2024/04/15 12:20:09;;;;;;;6.30;1.10;;;;;;;11.84;69.96;99567.27;111404;1254;23344;-83
2024/04/15 12:22:56;;;;;;;7.00;1.20;;;;;;;11.83;69.87;99555.83;111396;1266;22244;-83
2024/04/15 12:25:45;;;;;;;6.10;1.00;;;;;;;11.81;70.07;99559.90;111328;1268;22249;-81
2024/04/15 12:28:33;;;;;;;7.80;1.20;;;;;;;11.86;70.33;99554.48;111384;1263;22135;-82
2024/04/15 12:31:21;;;;;;;7.90;1.30;;;;;;;11.93;70.36;99547.82;111304;1257;22431;-82
2024/04/15 12:34:09;;;;;;;5.90;1.00;;;;;;;11.97;70.25;99545.70;111268;1264;22834;-83
2024/04/15 12:36:56;;;;;;;9.40;1.40;;;;;;;12.01;70.23;99540.88;111263;1267;22190;-84
2024/04/15 12:39:44;;;;;;;8.50;1.70;;;;;;;12.07;70.55;99541.59;111403;1268;22146;-83
2024/04/15 12:42:32;;;;;;;6.40;1.10;;;;;;;12.12;70.64;99536.67;111362;1267;22188;-83
2024/04/15 12:45:20;;;;;;;5.90;1.20;;;;;;;12.20;70.41;99529.57;111068;1260;22371;-83
2024/04/15 12:48:14;;;;;;;9.70;1.30;;;;;;;12.28;70.62;99520.05;111074;1261;22913;-83
2024/04/15 12:51:02;;;;;;;6.50;1.30;;;;;;;12.41;70.57;99512.42;111145;1269;22277;-83
2024/04/15 12:53:53;;;;;;;8.70;1.20;;;;;;;12.51;70.24;99502.59;111124;1269;22347;-83
2024/04/15 12:56:40;;;;;;;6.40;1.20;;;;;;;12.62;70.08;99497.44;111213;1269;22255;-84
2024/04/15 12:59:28;;;;;;;7.90;1.30;;;;;;;12.67;69.76;99503.29;111382;1268;22139;-84
2024/04/15 13:02:16;;;;;;;9.00;1.30;;;;;;;12.74;69.70;99506.39;111360;1261;22250;-84
2024/04/15 13:05:03;;;;;;;7.30;1.60;;;;;;;12.80;69.32;99499.75;111259;1264;22356;-84
2024/04/15 13:07:51;;;;;;;4.80;1.10;;;;;;;12.87;69.18;99494.79;111227;1266;22254;-84
2024/04/15 13:10:39;;;;;;;9.50;1.50;;;;;;;12.93;68.72;99509.45;111277;1269;22247;-83
2024/04/15 13:13:27;;;;;;;8.40;1.80;;;;;;;12.92;68.50;99507.31;111296;1261;22179;-84
2024/04/15 13:16:15;;;;;;;10.90;2.40;;;;;;;12.95;68.88;99505.27;111234;1264;22210;-84
2024/04/15 13:19:03;;;;;;;11.60;1.40;;;;;;;13.04;68.69;99497.05;111171;1267;22216;-84
2024/04/15 13:21:51;;;;;;;7.70;1.30;;;;;;;13.07;67.83;99498.95;111123;1260;22917;-84
2024/04/15 13:24:39;;;;;;;5.30;1.10;;;;;;;13.08;68.22;99485.61;111253;1266;23054;-84
2024/04/15 13:27:28;;;;;;;6.30;1.30;;;;;;;13.11;68.16;99471.59;111175;1260;22246;-84
2024/04/15 13:30:16;;;;;;;10.80;2.10;;;;;;;13.13;68.17;99470.25;111378;1261;22328;-83
2024/04/15 13:33:05;;;;;;;9.60;1.20;;;;;;;13.18;68.20;99473.48;111196;1268;22263;-84
2024/04/15 13:35:52;;;;;;;10.70;1.50;;;;;;;13.26;68.60;99454.91;111070;1263;22747;-85
2024/04/15 13:38:40;;;;;;;8.30;1.50;;;;;;;13.40;68.37;99446.39;111087;1270;22260;-85
2024/04/15 13:41:29;;;;;;;8.20;1.60;;;;;;;13.47;67.71;99457.05;111131;1267;22317;-84
2024/04/15 13:44:17;;;;;;;8.70;1.40;;;;;;;13.50;67.48;99451.98;111005;1267;22222;-85
2024/04/15 13:47:05;;;;;;;6.30;1.30;;;;;;;13.50;67.10;99447.45;111374;1268;23039;-84
2024/04/15 13:49:53;;;;;;;9.10;1.40;;;;;;;13.49;67.02;99437.77;111263;1267;22366;-84
2024/04/15 13:52:41;;;;;;;7.10;1.30;;;;;;;13.50;66.48;99424.61;111327;1267;22349;-84
2024/04/15 13:55:31;;;;;;;7.60;1.20;;;;;;;13.51;66.49;99416.40;111169;1267;22683;-84
2024/04/15 13:58:23;;;;;;;5.10;1.10;;;;;;;13.53;66.28;99425.05;111401;1268;22225;-84
2024/04/15 14:01:11;;;;;;;9.50;1.30;;;;;;;13.53;66.19;99416.69;111336;1267;22382;-84
2024/04/15 14:03:59;;;;;;;8.90;1.40;;;;;;;13.57;66.65;99421.61;111306;1267;22197;-84
2024/04/15 14:06:47;;;;;;;6.30;1.50;;;;;;;13.65;66.58;99408.15;111104;1267;22224;-85
2024/04/15 14:09:35;;;;;;;7.90;1.40;;;;;;;13.71;66.63;99402.49;111398;1260;22411;-85
2024/04/15 14:12:23;;;;;;;8.90;1.50;;;;;;;13.73;66.43;99388.67;111142;1263;22422;-84
2024/04/15 14:15:10;;;;;;;8.50;1.90;;;;;;;13.71;66.08;99376.90;111115;1263;23058;-84
2024/04/15 14:17:58;;;;;;;6.50;1.50;;;;;;;13.64;65.82;99366.28;111179;1267;22243;-83
2024/04/15 14:20:46;;;;;;;10.10;1.90;;;;;;;13.58;66.17;99357.92;111197;1269;22336;-83
2024/04/15 14:23:34;;;;;;;8.90;1.50;;;;;;;13.55;66.22;99349.13;111233;1269;22285;-83
2024/04/15 14:26:22;;;;;;;7.70;1.90;;;;;;;13.52;66.39;99343.39;111137;1267;22385;-83
2024/04/15 14:29:10;;;;;;;7.40;1.40;;;;;;;13.49;66.68;99340.65;111201;1264;22228;-84
2024/04/15 14:31:58;;;;;;;7.30;1.60;;;;;;;13.50;67.06;99332.95;111331;1261;22227;-84
2024/04/15 14:34:47;;;;;;;8.20;1.40;;;;;;;13.50;66.90;99325.45;111370;1263;22220;-83
2024/04/15 14:37:34;;;;;;;7.10;1.50;;;;;;;13.48;66.97;99321.23;111193;1268;22472;-84
2024/04/15 14:40:22;;;;;;;8.20;1.90;;;;;;;13.49;66.95;99312.11;111399;1266;22209;-83
2024/04/15 14:43:10;;;;;;;13.40;1.90;;;;;;;13.50;66.96;99299.96;111362;1267;22293;-83
2024/04/15 14:45:57;;;;;;;7.70;1.40;;;;;;;13.57;67.59;99289.60;111176;1262;22251;-84
2024/04/15 14:48:45;;;;;;;8.10;2.00;;;;;;;13.63;67.52;99283.19;111390;1266;22251;-84
2024/04/15 14:51:36;;;;;;;11.10;1.70;;;;;;;13.66;67.30;99282.45;111413;1261;22391;-83
2024/04/15 14:54:24;;;;;;;7.20;1.80;;;;;;;13.64;66.98;99275.11;111378;1261;22378;-83
2024/04/15 14:57:12;;;;;;;10.10;2.10;;;;;;;13.58;67.05;99270.89;111242;1260;22458;-83
2024/04/15 15:00:11;;;;;;;10.80;2.20;;;;;;;13.52;67.06;99270.93;111383;1260;22629;-84
2024/04/15 15:02:59;;;;;;;10.40;1.80;;;;;;;13.48;66.86;99268.06;111413;1268;22194;-83
2024/04/15 15:05:47;;;;;;;9.80;1.80;;;;;;;13.41;67.01;99268.69;111278;1269;22238;-84
2024/04/15 15:08:37;;;;;;;14.70;2.00;;;;;;;13.38;67.45;99267.23;111248;1269;22218;-84
2024/04/15 15:11:25;;;;;;;9.20;2.20;;;;;;;13.40;67.46;99257.27;111371;1268;22243;-84
2024/04/15 15:14:15;;;;;;;7.50;1.70;;;;;;;13.39;67.10;99257.27;111120;1267;22097;-84
2024/04/15 15:17:06;;;;;;;9.40;2.10;;;;;;;13.36;67.13;99248.95;111150;1267;22198;-83
2024/04/15 15:19:54;;;;;;;7.90;1.60;;;;;;;13.34;67.42;99244.84;111309;1266;22131;-83
2024/04/15 15:22:46;;;;;;;9.00;2.60;;;;;;;13.37;67.47;99242.57;111236;1263;22266;-84
2024/04/15 15:25:34;;;;;;;12.60;2.70;;;;;;;13.37;67.43;99228.45;111153;1269;22474;-83
2024/04/15 15:28:25;;;;;;;10.90;2.80;;;;;;;13.34;67.32;99220.98;111283;1261;22223;-85
2024/04/15 15:31:14;;;;;;;10.00;2.20;;;;;;;13.32;67.49;99219.98;111034;1269;22166;-84
2024/04/15 15:34:01;;;;;;;7.70;2.00;;;;;;;13.35;67.58;99217.20;111227;1261;23054;-84
2024/04/15 15:36:51;;;;;;;9.00;2.50;;;;;;;13.37;67.67;99213.98;111111;1262;22314;-84
2024/04/15 15:39:43;;;;;;;9.30;1.90;;;;;;;13.34;67.56;99211.40;111404;1260;23675;-85
2024/04/15 15:42:30;;;;;;;8.90;2.20;;;;;;;13.27;67.38;99201.21;111123;1260;23091;-85
2024/04/15 15:45:22;;;;;;;6.60;2.20;;;;;;;13.22;67.73;99183.32;111353;1260;22333;-84
2024/04/15 15:48:09;;;;;;;9.70;2.10;;;;;;;13.21;67.86;99176.25;111164;1260;23180;-84
2024/04/15 15:51:02;;;;;;;8.00;1.80;;;;;;;13.18;68.12;99174.08;111104;1269;22782;-84
2024/04/15 15:53:50;;;;;;;8.70;2.10;;;;;;;13.14;67.86;99177.73;111105;1269;22202;-83
2024/04/15 15:56:38;;;;;;;8.80;2.20;;;;;;;13.07;67.96;99185.18;111126;1269;22216;-84
2024/04/15 15:59:27;;;;;;;11.00;2.40;;;;;;;13.00;68.16;99178.98;111382;1266;22172;-84
2024/04/15 16:02:14;;;;;;;9.70;3.40;;;;;;;12.99;68.52;99174.30;111410;1260;23056;-85
2024/04/15 16:05:04;;;;;;;13.20;2.00;;;;;;;12.98;68.66;99170.34;111374;1268;22219;-84
2024/04/15 16:07:54;;;;;;;10.40;2.50;;;;;;;12.99;68.78;99164.23;111404;1268;22498;-85
2024/04/15 16:10:42;;;;;;;9.10;2.20;;;;;;;12.99;68.76;99157.39;111297;1261;22951;-83
2024/04/15 16:13:35;;;;;;;9.20;2.70;;;;;;;12.95;68.53;99147.96;111299;1268;22334;-83
2024/04/15 16:16:23;;;;;;;7.10;1.80;;;;;;;12.90;68.81;99135.88;111391;1261;22286;-84
2024/04/15 16:19:11;;;;;;;12.00;2.40;;;;;;;12.89;68.88;99127.38;111105;1263;23299;-83
2024/04/15 16:21:59;;;;;;;9.40;2.30;;;;;;;12.92;69.05;99128.27;111218;1269;22218;-83
2024/04/15 16:24:48;;;;;;;8.30;2.80;;;;;;;12.95;69.45;99135.88;111070;1270;22243;-83
2024/04/15 16:27:37;;;;;;;8.70;2.40;;;;;;;12.94;69.38;99132.58;111364;1262;22715;-83
2024/04/15 16:30:24;;;;;;;8.10;2.70;;;;;;;12.92;69.57;99125.27;111368;1260;23028;-84
2024/04/15 16:33:12;;;;;;;10.70;3.30;;;;;;;12.93;69.61;99111.55;111398;1261;22380;-83
2024/04/15 16:36:03;;;;;;;13.70;3.00;;;;;;;12.90;69.90;99086.72;111176;1268;22322;-84
2024/04/15 16:38:51;;;;;;;9.70;2.50;;;;;;;12.82;70.05;99079.92;111220;1269;22317;-84
2024/04/15 16:41:39;;;;;;;8.50;2.60;;;;;;;12.77;70.22;99078.23;111266;1269;22479;-84
2024/04/15 16:44:26;;;;;;;13.00;3.90;;;;;;;12.71;70.46;99078.17;111370;1265;22169;-84
2024/04/15 16:47:14;;;;;;;12.40;4.00;;;;;;;12.67;70.56;99079.08;111389;1261;22287;-83
2024/04/15 16:50:02;;;;;;;16.10;4.60;;;;;;;12.66;70.62;99070.39;111186;1268;22224;-83
2024/04/15 16:52:51;;;;;;;15.80;5.60;;;;;;;12.62;70.88;99063.24;111179;1262;22498;-83
2024/04/15 16:55:40;;;;;;;12.80;5.40;;;;;;;12.58;71.05;99053.39;108735;1246;22539;-83
2024/04/15 16:58:28;;;;;;;13.10;3.90;;;;;;;12.54;71.33;99050.17;108643;1267;22909;-82
2024/04/15 17:01:17;;;;;;;10.00;2.80;;;;;;;12.46;71.39;99047.02;108482;1269;22649;-82
2024/04/15 17:04:07;;;;;;;10.20;3.20;;;;;;;12.42;71.47;99042.89;108450;1268;22568;-85
2024/04/15 17:06:56;;;;;;;13.10;4.30;;;;;;;12.37;71.78;99035.14;108475;1266;24470;-84
2024/04/15 17:09:45;;;;;;;16.60;4.50;;;;;;;12.29;71.94;99027.77;108796;1266;22569;-83
2024/04/15 17:12:34;;;;;;;11.70;3.90;;;;;;;12.16;72.23;99027.70;108407;1268;22564;-85
2024/04/15 17:15:23;;;;;;;13.70;5.40;;;;;;;12.09;72.49;99020.83;110642;1266;23348;-83
2024/04/15 17:18:11;;;;;;;14.40;4.20;;;;;;;12.04;72.83;99011.56;108669;1264;25518;-82
2024/04/15 17:20:59;;;;;;;11.40;4.40;;;;;;;11.96;72.82;99007.85;108867;1267;25276;-81
2024/04/15 17:23:47;;;;;;;13.20;3.40;;;;;;;11.90;73.11;99004.32;108703;1257;177978;-82
2024/04/15 17:26:39;;;;;;;13.10;4.10;;;;;;;11.88;73.22;98994.48;108580;1268;22622;-83
2024/04/15 17:29:29;;;;;;;12.70;4.10;;;;;;;11.85;73.47;98988.25;108834;1266;22548;-81
2024/04/15 17:32:34;;;;;;;11.10;3.90;;;;;;;11.85;73.53;98983.31;104802;1305;543349;-80
2024/04/15 17:35:26;;;;;;;17.20;5.20;;;;;;;11.77;73.62;98982.73;107499;1283;22566;-83
2024/04/15 17:38:18;;;;;;;19.90;6.30;;;;;;;11.72;73.90;98979.05;107604;1280;22669;-83
2024/04/15 17:41:11;;;;;;;16.80;6.20;;;;;;;11.67;73.83;98969.48;107557;1280;22551;-82
2024/04/15 17:44:04;;;;;;;22.10;9.00;;;;;;;11.65;73.81;98963.31;110200;1273;22161;-84
2024/04/15 17:46:55;;;;;;;33.80;15.40;;;;;;;11.63;73.92;98950.78;110078;1269;168739;-83
2024/04/15 17:49:46;;;;;;;23.20;9.60;;;;;;;11.57;74.07;98938.77;110677;1270;22994;-83
2024/04/15 17:52:34;;;;;;;;;;;;;;;11.49;74.05;98936.52;110683;1265;22404;-84
2024/04/15 17:55:25;;;;;;;14.20;5.10;;;;;;;11.40;74.36;98935.30;111124;1267;22819;-83
2024/04/15 17:58:16;;;;;;;11.90;4.90;;;;;;;11.30;74.76;98929.25;109154;1264;24342;-82
2024/04/15 18:01:07;;;;;;;18.60;6.00;;;;;;;11.23;75.07;98916.60;108572;1267;22783;-79
2024/04/15 18:03:58;;;;;;;16.40;5.40;;;;;;;11.16;75.20;98911.61;107889;1267;24275;-80
2024/04/15 18:06:49;;;;;;;15.80;5.10;;;;;;;11.08;75.32;98904.07;108776;1266;22535;-82
2024/04/15 18:09:40;;;;;;;13.00;4.40;;;;;;;11.03;75.77;98907.30;108641;1270;22532;-84
2024/04/15 18:12:30;;;;;;;16.00;5.40;;;;;;;10.97;76.01;98899.76;108443;1262;22561;-84
2024/04/15 18:15:22;;;;;;;15.50;4.60;;;;;;;10.89;76.10;98896.64;108504;1270;22528;-83